Graham, Washington
Current Conditions -  °F | °C
As of 5:08 AM on Saturday 25 Oct 2014 (Local Time) from KTCM Reporting Station
Haze Haze  
Wind Chill: 45°   Ceiling: 200
Heat Index: 45°   Visibility: 0.75mi
Dew Point: 45°   Wind: 3mph
Humidity: 100%   Direction: 170°S
Pressure: 29.52"   Gusts: NA
Location:  47.03°N, 122.3°W
Report Text: KTCM 251208Z AUTO 17003KT 3/4SM R34/2000FT BR VV002 07/07 A2952 RMK AO2 $
Loading
Personal Weather Stations






























Interactive Weather Map
Tropical Storm Tracking
New forecast layout! Learn more

10-Day Weather Forecast

Advertisements
Track Severe Weather on mobile